Time;durP1;ratioP1;P1;durP2;ratioP2;P2;SDS_P1;SDS_P2;PMS_P1;PMS_P2;Temp;Humidity;BMP_temperature;BMP_pressure;BME280_temperature;BME280_humidity;BME280_pressure;Samples;Min_cycle;Max_cycle;Signal;HPM_P1;HPM_P2
2023/07/26 00:01:45;;;;;;;;;3.33;3.33;;;;;;;;5095576;27;46110;-75
2023/07/26 00:04:10;;;;;;;;;5.00;4.67;;;;;;;;5095857;27;46336;-75
2023/07/26 00:06:35;;;;;;;;;5.00;5.00;;;;;;;;5095493;27;45485;-74
2023/07/26 00:09:01;;;;;;;;;5.67;4.67;;;;;;;;5099557;27;45540;-75
2023/07/26 00:11:26;;;;;;;;;6.33;4.00;;;;;;;;5098476;27;47108;-75
2023/07/26 00:13:51;;;;;;;;;5.00;4.33;;;;;;;;5098591;27;45587;-74
2023/07/26 00:16:16;;;;;;;;;4.00;4.00;;;;;;;;5098840;27;45425;-75
2023/07/26 00:18:41;;;;;;;;;4.33;4.33;;;;;;;;5098995;27;45621;-75
2023/07/26 00:21:07;;;;;;;;;3.33;3.33;;;;;;;;5098327;27;45584;-75
2023/07/26 00:23:32;;;;;;;;;5.00;5.00;;;;;;;;5098412;27;45437;-73
2023/07/26 00:25:57;;;;;;;;;4.00;2.67;;;;;;;;5098667;27;45536;-75
2023/07/26 00:28:22;;;;;;;;;6.33;4.67;;;;;;;;5098413;27;45524;-75
2023/07/26 00:30:48;;;;;;;;;6.00;4.00;;;;;;;;5097865;27;46656;-76
2023/07/26 00:33:13;;;;;;;;;4.33;4.00;;;;;;;;5098298;27;45778;-75
2023/07/26 00:35:40;;;;;;;;;4.33;4.33;;;;;;;;5098397;27;45595;-74
2023/07/26 00:38:05;;;;;;;;;4.67;4.00;;;;;;;;5098706;27;45488;-75
2023/07/26 00:40:31;;;;;;;;;5.00;4.00;;;;;;;;5097923;27;45411;-74
2023/07/26 00:42:56;;;;;;;;;4.67;3.67;;;;;;;;5097924;27;45429;-73
2023/07/26 00:45:21;;;;;;;;;4.67;4.67;;;;;;;;5098219;27;45450;-74
2023/07/26 00:47:46;;;;;;;;;5.00;4.33;;;;;;;;5098277;27;45566;-76
2023/07/26 00:50:12;;;;;;;;;4.67;3.00;;;;;;;;5097851;27;46268;-76
2023/07/26 00:52:38;;;;;;;;;4.67;4.67;;;;;;;;5097957;27;45468;-76
2023/07/26 00:55:03;;;;;;;;;5.00;5.00;;;;;;;;5098303;27;45569;-74
2023/07/26 00:57:29;;;;;;;;;4.67;4.33;;;;;;;;5097581;27;45517;-74
2023/07/26 00:59:55;;;;;;;;;6.33;5.00;;;;;;;;5097353;27;46635;-75
2023/07/26 01:02:20;;;;;;;;;4.00;4.00;;;;;;;;5096346;27;45477;-76
2023/07/26 01:04:45;;;;;;;;;5.00;5.00;;;;;;;;5098052;27;45472;-76
2023/07/26 01:07:15;;;;;;;;;6.33;4.33;;;;;;;;5098489;27;45347;-76
2023/07/26 01:10:00;;;;;;;;;4.00;3.33;;;;;;;;5097728;27;46239;-75
2023/07/26 01:12:32;;;;;;;;;6.67;5.00;;;;;;;;5096990;27;45508;-75
2023/07/26 01:14:58;;;;;;;;;4.67;4.00;;;;;;;;5097720;27;45650;-76
2023/07/26 01:17:23;;;;;;;;;4.00;3.67;;;;;;;;5097690;27;45428;-76
2023/07/26 01:19:48;;;;;;;;;5.33;3.67;;;;;;;;5096641;27;46805;-77
2023/07/26 01:22:14;;;;;;;;;4.00;4.00;;;;;;;;5097651;27;45446;-75
2023/07/26 01:24:39;;;;;;;;;5.33;4.00;;;;;;;;5097649;27;45501;-76
2023/07/26 01:27:04;;;;;;;;;3.33;3.00;;;;;;;;5097809;27;45332;-76
2023/07/26 01:29:30;;;;;;;;;4.00;4.00;;;;;;;;5096424;27;46712;-76
2023/07/26 01:31:55;;;;;;;;;0.67;0.00;;;;;;;;5097480;27;45404;-77
2023/07/26 01:34:20;;;;;;;;;6.00;5.00;;;;;;;;5097574;27;45426;-76
2023/07/26 01:36:46;;;;;;;;;5.33;5.00;;;;;;;;5097086;27;45481;-76
2023/07/26 01:39:11;;;;;;;;;7.67;4.67;;;;;;;;5097354;27;45813;-75
2023/07/26 01:41:38;;;;;;;;;6.00;4.00;;;;;;;;5097824;27;45450;-77
2023/07/26 01:44:03;;;;;;;;;6.00;4.33;;;;;;;;5096844;27;45485;-77
2023/07/26 01:46:28;;;;;;;;;6.00;4.33;;;;;;;;5097663;27;45405;-76
2023/07/26 01:48:54;;;;;;;;;6.33;5.00;;;;;;;;5097439;27;45466;-76
2023/07/26 01:51:19;;;;;;;;;5.00;5.00;;;;;;;;5097502;27;45472;-75
2023/07/26 01:53:44;;;;;;;;;3.00;3.00;;;;;;;;5097230;27;45452;-77
2023/07/26 01:56:09;;;;;;;;;6.67;4.33;;;;;;;;5098059;27;45520;-75
2023/07/26 01:58:35;;;;;;;;;4.00;4.00;;;;;;;;5098028;27;46681;-75
2023/07/26 02:01:01;;;;;;;;;5.67;4.00;;;;;;;;5097635;27;45377;-76
2023/07/26 02:03:27;;;;;;;;;5.67;4.33;;;;;;;;5097618;27;45201;-77
2023/07/26 02:05:52;;;;;;;;;6.00;4.67;;;;;;;;5098469;27;45320;-75
2023/07/26 02:08:17;;;;;;;;;7.00;4.67;;;;;;;;5097141;27;45516;-73
2023/07/26 02:10:42;;;;;;;;;3.67;3.67;;;;;;;;5097853;27;45358;-76
2023/07/26 02:13:08;;;;;;;;;5.33;5.33;;;;;;;;5098061;27;45548;-76
2023/07/26 02:15:33;;;;;;;;;4.67;4.00;;;;;;;;5096850;27;45604;-77
2023/07/26 02:17:59;;;;;;;;;6.00;5.67;;;;;;;;5097474;27;46564;-76
2023/07/26 02:20:24;;;;;;;;;7.00;6.00;;;;;;;;5097411;27;45456;-76
2023/07/26 02:22:49;;;;;;;;;4.00;4.00;;;;;;;;5098434;27;45458;-76
2023/07/26 02:25:15;;;;;;;;;3.67;3.67;;;;;;;;5097997;27;45478;-77
2023/07/26 02:27:40;;;;;;;;;6.33;5.33;;;;;;;;5097394;27;46238;-77
2023/07/26 02:30:06;;;;;;;;;5.67;3.67;;;;;;;;5096611;27;45522;-76
2023/07/26 02:32:31;;;;;;;;;5.33;4.33;;;;;;;;5097439;27;45508;-77
2023/07/26 02:34:56;;;;;;;;;4.67;4.67;;;;;;;;5096477;27;46284;-76
2023/07/26 02:37:22;;;;;;;;;9.67;6.00;;;;;;;;5096985;27;46170;-75
2023/07/26 02:39:47;;;;;;;;;5.00;4.00;;;;;;;;5098004;27;45505;-76
2023/07/26 02:42:13;;;;;;;;;10.33;6.00;;;;;;;;5097820;27;45450;-76
2023/07/26 02:44:38;;;;;;;;;4.33;3.67;;;;;;;;5098010;27;45483;-75
2023/07/26 02:47:03;;;;;;;;;5.67;4.00;;;;;;;;5096458;27;45460;-76
2023/07/26 02:49:29;;;;;;;;;8.00;5.67;;;;;;;;5096585;27;45401;-76
2023/07/26 02:51:54;;;;;;;;;8.00;4.00;;;;;;;;5096880;27;45500;-76
2023/07/26 02:54:19;;;;;;;;;4.00;4.00;;;;;;;;5097443;27;45887;-77
2023/07/26 02:56:44;;;;;;;;;6.00;5.00;;;;;;;;5097116;27;46352;-75
2023/07/26 02:59:09;;;;;;;;;6.33;6.33;;;;;;;;5097984;27;45316;-76
2023/07/26 03:01:34;;;;;;;;;5.33;5.33;;;;;;;;5096755;27;45968;-76
2023/07/26 03:04:00;;;;;;;;;5.00;4.67;;;;;;;;5097034;27;45432;-76
2023/07/26 03:06:26;;;;;;;;;5.67;5.00;;;;;;;;5096577;27;47395;-76
2023/07/26 03:08:51;;;;;;;;;10.75;5.25;;;;;;;;5096839;27;45418;-75
2023/07/26 03:11:17;;;;;;;;;4.67;4.33;;;;;;;;5097158;27;45337;-77
2023/07/26 03:13:42;;;;;;;;;8.00;6.00;;;;;;;;5096915;27;45339;-76
2023/07/26 03:16:07;;;;;;;;;5.00;4.67;;;;;;;;5096415;27;46163;-76
2023/07/26 03:18:32;;;;;;;;;6.33;4.33;;;;;;;;5097526;27;45415;-77
2023/07/26 03:20:57;;;;;;;;;7.67;4.67;;;;;;;;5096902;27;45372;-75
2023/07/26 03:23:23;;;;;;;;;4.50;4.50;;;;;;;;5096997;27;45311;-75
2023/07/26 03:25:48;;;;;;;;;8.67;4.33;;;;;;;;5096394;27;46690;-75
2023/07/26 03:28:13;;;;;;;;;6.00;5.25;;;;;;;;5096986;27;45339;-76
2023/07/26 03:30:38;;;;;;;;;11.00;6.67;;;;;;;;5096295;27;45460;-77
2023/07/26 03:33:03;;;;;;;;;7.00;5.00;;;;;;;;5096948;27;45456;-77
2023/07/26 03:35:29;;;;;;;;;10.33;6.00;;;;;;;;5096450;27;46060;-76
2023/07/26 03:37:54;;;;;;;;;7.67;5.00;;;;;;;;5096651;27;45452;-76
2023/07/26 03:40:20;;;;;;;;;6.67;5.00;;;;;;;;5097033;27;45370;-75
2023/07/26 03:42:45;;;;;;;;;7.33;5.00;;;;;;;;5096904;27;45553;-75
2023/07/26 03:45:10;;;;;;;;;6.00;6.00;;;;;;;;5096673;27;45472;-75
2023/07/26 03:47:35;;;;;;;;;9.67;5.67;;;;;;;;5096038;27;45636;-74
2023/07/26 03:50:00;;;;;;;;;5.67;5.67;;;;;;;;5096651;27;45383;-78
2023/07/26 03:52:26;;;;;;;;;5.00;5.00;;;;;;;;5097165;27;45421;-75
2023/07/26 03:54:51;;;;;;;;;8.67;6.67;;;;;;;;5096455;27;45464;-75
2023/07/26 03:57:16;;;;;;;;;10.00;8.00;;;;;;;;5096884;27;45301;-75
2023/07/26 03:59:41;;;;;;;;;9.33;7.67;;;;;;;;5096819;27;46832;-75
2023/07/26 04:02:08;;;;;;;;;7.67;5.67;;;;;;;;5097073;27;46553;-76
2023/07/26 04:04:33;;;;;;;;;6.00;6.00;;;;;;;;5096316;27;47546;-75
2023/07/26 04:06:58;;;;;;;;;6.33;4.33;;;;;;;;5096785;27;45499;-74
2023/07/26 04:09:23;;;;;;;;;5.67;5.67;;;;;;;;5096014;27;45447;-78
2023/07/26 04:11:52;;;;;;;;;6.33;6.00;;;;;;;;5096851;27;45538;-76
2023/07/26 04:14:17;;;;;;;;;12.00;11.00;;;;;;;;5096543;27;46650;-75
2023/07/26 04:16:43;;;;;;;;;7.67;5.67;;;;;;;;5096039;27;45213;-75
2023/07/26 04:19:08;;;;;;;;;7.33;5.00;;;;;;;;5096340;27;45520;-76
2023/07/26 04:21:33;;;;;;;;;8.00;5.33;;;;;;;;5096203;27;45384;-75
2023/07/26 04:23:58;;;;;;;;;6.00;6.00;;;;;;;;5096516;27;47583;-76
2023/07/26 04:26:23;;;;;;;;;9.00;6.67;;;;;;;;5096303;27;45367;-75
2023/07/26 04:28:49;;;;;;;;;7.00;5.00;;;;;;;;5096177;27;45431;-75
2023/07/26 04:31:14;;;;;;;;;6.67;6.67;;;;;;;;5096361;27;45450;-75
2023/07/26 04:33:39;;;;;;;;;10.33;7.67;;;;;;;;5095711;27;45400;-75
2023/07/26 04:36:04;;;;;;;;;7.33;7.33;;;;;;;;5095639;27;45383;-74
2023/07/26 04:38:29;;;;;;;;;10.67;7.67;;;;;;;;5096292;27;45708;-76
2023/07/26 04:40:55;;;;;;;;;13.00;7.33;;;;;;;;5096338;27;45483;-75
2023/07/26 04:43:20;;;;;;;;;10.67;6.67;;;;;;;;5096051;27;46605;-75
2023/07/26 04:45:46;;;;;;;;;9.00;8.33;;;;;;;;5095714;27;45457;-76
2023/07/26 04:48:12;;;;;;;;;37.33;18.67;;;;;;;;5096096;27;45518;-75
2023/07/26 04:50:37;;;;;;;;;7.33;7.33;;;;;;;;5096193;27;45589;-75
2023/07/26 04:53:02;;;;;;;;;4.33;4.33;;;;;;;;5095126;27;46204;-75
2023/07/26 04:55:27;;;;;;;;;7.00;5.00;;;;;;;;5098591;27;45402;-74
2023/07/26 04:57:52;;;;;;;;;7.33;7.33;;;;;;;;5099818;27;45508;-76
2023/07/26 05:00:18;;;;;;;;;9.00;6.33;;;;;;;;5099106;27;45372;-75
2023/07/26 05:02:43;;;;;;;;;6.33;6.33;;;;;;;;5099303;27;46147;-77
2023/07/26 05:05:08;;;;;;;;;11.67;8.67;;;;;;;;5099661;27;45285;-76
2023/07/26 05:07:33;;;;;;;;;9.33;8.00;;;;;;;;5099166;27;45510;-75
2023/07/26 05:09:58;;;;;;;;;10.33;7.67;;;;;;;;5099422;27;45510;-74
2023/07/26 05:12:24;;;;;;;;;8.00;8.00;;;;;;;;5098637;27;45603;-76
2023/07/26 05:14:49;;;;;;;;;12.00;12.00;;;;;;;;5099196;27;45404;-78
2023/07/26 05:17:14;;;;;;;;;7.67;5.00;;;;;;;;5099193;27;45442;-74
2023/07/26 05:19:39;;;;;;;;;9.33;8.00;;;;;;;;5098869;27;45360;-74
2023/07/26 05:22:05;;;;;;;;;8.67;7.00;;;;;;;;5097754;27;47127;-78
2023/07/26 05:24:30;;;;;;;;;7.00;7.00;;;;;;;;5098969;27;45190;-76
2023/07/26 05:26:55;;;;;;;;;6.33;6.00;;;;;;;;5098983;27;45439;-77
2023/07/26 05:29:21;;;;;;;;;6.67;6.00;;;;;;;;5098589;27;45361;-78
2023/07/26 05:31:46;;;;;;;;;11.33;7.00;;;;;;;;5098261;27;45584;-76
2023/07/26 05:34:11;;;;;;;;;10.67;8.33;;;;;;;;5098951;27;45414;-76
2023/07/26 05:36:36;;;;;;;;;8.00;7.00;;;;;;;;5099257;27;45459;-76
2023/07/26 05:39:01;;;;;;;;;7.00;6.00;;;;;;;;5098899;27;45463;-75
2023/07/26 05:41:31;;;;;;;;;6.67;6.33;;;;;;;;5099133;27;46547;-76
2023/07/26 05:43:56;;;;;;;;;11.00;7.67;;;;;;;;5098348;27;45507;-76
2023/07/26 05:46:21;;;;;;;;;10.00;7.67;;;;;;;;5098349;27;45518;-77
2023/07/26 05:48:46;;;;;;;;;10.33;7.00;;;;;;;;5098143;27;46283;-75
2023/07/26 05:51:12;;;;;;;;;8.33;7.00;;;;;;;;5096885;27;45892;-75
2023/07/26 05:53:37;;;;;;;;;9.00;5.33;;;;;;;;5098277;27;45509;-75
2023/07/26 05:56:02;;;;;;;;;6.67;6.67;;;;;;;;5098237;27;45547;-74
2023/07/26 05:58:27;;;;;;;;;13.67;6.33;;;;;;;;5098175;27;45431;-76
2023/07/26 06:00:53;;;;;;;;;6.67;6.33;;;;;;;;5096087;27;47463;-74
2023/07/26 06:03:18;;;;;;;;;10.00;9.00;;;;;;;;5096615;27;45457;-75
2023/07/26 06:05:44;;;;;;;;;6.33;6.33;;;;;;;;5097544;27;45414;-75
2023/07/26 06:08:09;;;;;;;;;7.67;7.67;;;;;;;;5098191;27;45417;-77
2023/07/26 06:10:34;;;;;;;;;7.00;6.00;;;;;;;;5097582;27;46101;-77
2023/07/26 06:13:00;;;;;;;;;6.33;5.67;;;;;;;;5096936;27;45678;-75
2023/07/26 06:15:26;;;;;;;;;7.00;6.00;;;;;;;;5097130;27;45706;-75
2023/07/26 06:17:51;;;;;;;;;11.00;9.00;;;;;;;;5097393;27;45386;-76
2023/07/26 06:20:16;;;;;;;;;8.00;6.00;;;;;;;;5096850;27;46468;-75
2023/07/26 06:22:42;;;;;;;;;7.00;6.00;;;;;;;;5096561;27;46306;-76
2023/07/26 06:25:07;;;;;;;;;6.00;6.00;;;;;;;;5096524;27;45893;-75
2023/07/26 06:27:32;;;;;;;;;6.67;4.00;;;;;;;;5096686;27;45429;-76
2023/07/26 06:29:58;;;;;;;;;7.67;5.67;;;;;;;;5096613;27;47166;-77
2023/07/26 06:32:23;;;;;;;;;10.00;5.67;;;;;;;;5096260;27;45630;-75
2023/07/26 06:34:48;;;;;;;;;5.00;5.00;;;;;;;;5096343;27;45452;-76
2023/07/26 06:37:13;;;;;;;;;6.00;4.67;;;;;;;;5096801;27;45485;-75
2023/07/26 06:39:39;;;;;;;;;7.67;7.00;;;;;;;;5096017;27;47085;-75
2023/07/26 06:42:04;;;;;;;;;5.00;5.00;;;;;;;;5095642;27;45523;-75
2023/07/26 06:44:29;;;;;;;;;9.00;5.00;;;;;;;;5096302;27;45441;-76
2023/07/26 06:46:55;;;;;;;;;8.00;6.00;;;;;;;;5097114;27;45547;-75
2023/07/26 06:49:20;;;;;;;;;6.67;6.00;;;;;;;;5096073;27;46639;-75
2023/07/26 06:51:45;;;;;;;;;7.33;6.00;;;;;;;;5095258;27;45438;-78
2023/07/26 06:54:10;;;;;;;;;11.67;5.00;;;;;;;;5096393;27;45428;-77
2023/07/26 06:56:36;;;;;;;;;4.67;4.67;;;;;;;;5095966;27;45451;-75
2023/07/26 06:59:08;;;;;;;;;5.67;3.00;;;;;;;;5095788;27;46364;-74
2023/07/26 07:01:33;;;;;;;;;6.00;6.00;;;;;;;;5094739;27;45483;-75
2023/07/26 07:03:58;;;;;;;;;8.33;5.00;;;;;;;;5095408;27;45478;-77
2023/07/26 07:06:23;;;;;;;;;7.00;5.67;;;;;;;;5096250;27;45386;-77
2023/07/26 07:08:48;;;;;;;;;5.00;5.00;;;;;;;;5095986;27;45437;-76
2023/07/26 07:11:14;;;;;;;;;10.00;7.00;;;;;;;;5096215;27;45487;-76
2023/07/26 07:13:39;;;;;;;;;8.33;6.33;;;;;;;;5096039;27;45459;-76
2023/07/26 07:16:04;;;;;;;;;5.67;5.00;;;;;;;;5095816;27;45447;-77
2023/07/26 07:18:30;;;;;;;;;7.00;6.00;;;;;;;;5095490;27;45944;-75
2023/07/26 07:20:57;;;;;;;;;6.00;6.00;;;;;;;;5095895;27;45701;-77
2023/07/26 07:23:23;;;;;;;;;9.00;6.33;;;;;;;;5095846;27;45497;-76
2023/07/26 07:25:48;;;;;;;;;7.33;7.33;;;;;;;;5094948;27;45418;-75
2023/07/26 07:28:13;;;;;;;;;6.33;6.00;;;;;;;;5095824;27;46288;-74
2023/07/26 07:30:38;;;;;;;;;6.33;6.33;;;;;;;;5095892;27;45442;-76
2023/07/26 07:33:03;;;;;;;;;5.00;4.00;;;;;;;;5095872;27;45506;-77
2023/07/26 07:35:29;;;;;;;;;7.00;7.00;;;;;;;;5095982;27;45555;-76
2023/07/26 07:37:54;;;;;;;;;7.00;5.67;;;;;;;;5095289;27;46272;-75
2023/07/26 07:40:19;;;;;;;;;7.33;5.00;;;;;;;;5094642;27;45491;-74
2023/07/26 07:42:44;;;;;;;;;6.33;5.00;;;;;;;;5095372;27;45510;-76
2023/07/26 07:45:10;;;;;;;;;13.00;13.00;;;;;;;;5095587;27;45775;-76
2023/07/26 07:47:35;;;;;;;;;14.67;5.33;;;;;;;;5095959;27;46633;-76
2023/07/26 07:50:00;;;;;;;;;6.00;4.25;;;;;;;;5095459;27;46070;-75
2023/07/26 07:52:25;;;;;;;;;7.67;5.67;;;;;;;;5095294;27;45406;-75
2023/07/26 07:54:50;;;;;;;;;8.00;6.33;;;;;;;;5095769;27;45920;-76
2023/07/26 07:57:17;;;;;;;;;8.67;7.00;;;;;;;;5077002;27;46186;-76
2023/07/26 07:59:42;;;;;;;;;6.00;4.33;;;;;;;;5095102;27;45417;-75
2023/07/26 08:02:07;;;;;;;;;5.67;5.67;;;;;;;;5095621;27;45207;-75
2023/07/26 08:04:35;;;;;;;;;7.00;5.00;;;;;;;;5095940;27;45340;-76
2023/07/26 08:07:00;;;;;;;;;7.33;6.00;;;;;;;;5095531;27;45412;-74
2023/07/26 08:09:26;;;;;;;;;5.00;4.00;;;;;;;;5095418;27;45625;-76
2023/07/26 08:11:51;;;;;;;;;3.00;3.00;;;;;;;;5095578;27;45507;-77
2023/07/26 08:14:16;;;;;;;;;6.00;3.00;;;;;;;;5095802;27;45486;-76
2023/07/26 08:16:41;;;;;;;;;8.00;4.67;;;;;;;;5094651;27;45518;-76
2023/07/26 08:19:06;;;;;;;;;4.67;4.67;;;;;;;;5094926;27;45351;-75
2023/07/26 08:21:32;;;;;;;;;6.33;4.67;;;;;;;;5095699;27;45378;-75
2023/07/26 08:23:57;;;;;;;;;5.67;5.00;;;;;;;;5095584;27;45383;-75
2023/07/26 08:26:22;;;;;;;;;5.00;5.00;;;;;;;;5095250;27;47389;-75
2023/07/26 08:28:48;;;;;;;;;4.00;4.00;;;;;;;;5097412;27;45399;-75
2023/07/26 08:31:13;;;;;;;;;4.33;4.33;;;;;;;;5098485;27;45591;-75
2023/07/26 08:33:38;;;;;;;;;5.00;5.00;;;;;;;;5098569;27;45585;-76
2023/07/26 08:36:04;;;;;;;;;7.67;5.00;;;;;;;;5098845;27;46259;-75
2023/07/26 08:38:29;;;;;;;;;6.00;6.00;;;;;;;;5098714;27;45368;-75
2023/07/26 08:40:54;;;;;;;;;7.00;5.33;;;;;;;;5099178;27;45513;-74
2023/07/26 08:43:22;;;;;;;;;7.00;5.33;;;;;;;;5098809;27;45358;-75
2023/07/26 08:45:49;;;;;;;;;5.67;5.67;;;;;;;;5098075;27;46337;-74
2023/07/26 08:48:15;;;;;;;;;7.00;4.00;;;;;;;;5097115;27;45425;-76
2023/07/26 08:50:41;;;;;;;;;6.00;6.00;;;;;;;;5097924;27;45420;-75
2023/07/26 08:53:06;;;;;;;;;5.00;4.00;;;;;;;;5098269;27;45526;-75
2023/07/26 08:55:32;;;;;;;;;4.00;4.00;;;;;;;;5097971;27;46382;-76
2023/07/26 08:57:57;;;;;;;;;7.00;7.00;;;;;;;;5097769;27;45465;-75
2023/07/26 09:00:22;;;;;;;;;5.67;4.33;;;;;;;;5098047;27;45472;-74
2023/07/26 09:02:48;;;;;;;;;6.67;5.33;;;;;;;;5098302;27;45541;-74
2023/07/26 09:05:13;;;;;;;;;5.00;5.00;;;;;;;;5097022;27;46655;-74
2023/07/26 09:07:38;;;;;;;;;4.33;4.00;;;;;;;;5097938;27;46271;-75
2023/07/26 09:10:04;;;;;;;;;7.67;7.00;;;;;;;;5097903;27;45434;-74
2023/07/26 09:12:29;;;;;;;;;6.33;6.33;;;;;;;;5098626;27;45218;-76
2023/07/26 09:14:59;;;;;;;;;5.33;4.00;;;;;;;;5097474;27;45574;-74
2023/07/26 09:17:38;;;;;;;;;3.00;3.00;;;;;;;;5097601;27;45444;-74
2023/07/26 09:20:03;;;;;;;;;7.00;5.33;;;;;;;;5097339;27;45494;-74
2023/07/26 09:22:30;;;;;;;;;7.00;5.67;;;;;;;;5097750;27;46171;-75
2023/07/26 09:24:55;;;;;;;;;4.00;4.00;;;;;;;;5096335;27;46236;-74
2023/07/26 09:27:21;;;;;;;;;5.00;3.67;;;;;;;;5097288;27;45429;-74
2023/07/26 09:29:54;;;;;;;;;5.00;5.00;;;;;;;;5097871;27;45216;-74
2023/07/26 09:32:25;;;;;;;;;5.00;4.00;;;;;;;;5096901;27;45444;-74
2023/07/26 09:34:51;;;;;;;;;4.33;4.33;;;;;;;;5096024;27;45460;-74
2023/07/26 09:37:21;;;;;;;;;5.00;3.00;;;;;;;;5095912;27;45452;-74
2023/07/26 09:39:46;;;;;;;;;5.00;5.00;;;;;;;;5096442;27;45434;-76
2023/07/26 09:42:11;;;;;;;;;7.00;6.00;;;;;;;;5097222;27;45516;-76
2023/07/26 09:44:37;;;;;;;;;6.67;5.00;;;;;;;;5097163;27;47120;-75
2023/07/26 09:47:02;;;;;;;;;3.67;3.67;;;;;;;;5096326;27;45514;-75
2023/07/26 09:49:29;;;;;;;;;5.00;5.00;;;;;;;;5096282;27;45471;-75
2023/07/26 09:51:57;;;;;;;;;4.33;3.67;;;;;;;;5097259;27;45539;-73
2023/07/26 09:54:25;;;;;;;;;6.00;4.00;;;;;;;;5097004;27;46432;-74
2023/07/26 09:56:52;;;;;;;;;5.00;4.00;;;;;;;;5096839;27;45357;-74
2023/07/26 09:59:17;;;;;;;;;3.00;3.00;;;;;;;;5097816;27;45360;-73
2023/07/26 10:01:44;;;;;;;;;4.67;3.00;;;;;;;;5097097;27;45533;-72
2023/07/26 10:04:14;;;;;;;;;4.33;4.33;;;;;;;;5096485;27;46227;-72
2023/07/26 10:06:41;;;;;;;;;3.67;3.00;;;;;;;;5096597;27;45426;-72
2023/07/26 10:09:08;;;;;;;;;2.67;2.67;;;;;;;;5096641;27;45588;-72
2023/07/26 10:11:34;;;;;;;;;3.00;2.00;;;;;;;;5096577;27;45842;-72
2023/07/26 10:14:00;;;;;;;;;3.00;3.00;;;;;;;;5077862;27;49165;-74
2023/07/26 10:16:26;;;;;;;;;3.67;3.67;;;;;;;;5096287;27;45444;-73
2023/07/26 10:18:52;;;;;;;;;0.33;0.33;;;;;;;;5096893;27;45469;-71
2023/07/26 10:21:18;;;;;;;;;2.67;2.00;;;;;;;;5096317;27;45592;-70
2023/07/26 10:23:44;;;;;;;;;3.00;3.00;;;;;;;;5096483;27;46367;-69
2023/07/26 10:26:11;;;;;;;;;2.00;1.00;;;;;;;;5096306;27;45489;-70
2023/07/26 10:28:38;;;;;;;;;4.00;2.00;;;;;;;;5096150;27;45824;-70
2023/07/26 10:31:03;;;;;;;;;3.33;3.33;;;;;;;;5095847;27;45918;-71
2023/07/26 10:33:29;;;;;;;;;1.33;1.33;;;;;;;;5094616;27;45413;-72
2023/07/26 10:35:54;;;;;;;;;1.33;1.33;;;;;;;;5096588;27;45764;-72
2023/07/26 10:38:19;;;;;;;;;1.33;1.33;;;;;;;;5096774;27;45557;-72
2023/07/26 10:40:44;;;;;;;;;2.67;2.67;;;;;;;;5097134;27;45565;-71
2023/07/26 10:43:22;;;;;;;;;3.00;2.33;;;;;;;;5096123;27;47412;-71
2023/07/26 10:45:54;;;;;;;;;3.33;3.00;;;;;;;;5096328;27;45545;-72
2023/07/26 10:48:25;;;;;;;;;2.00;2.00;;;;;;;;5096067;27;45484;-71
2023/07/26 10:50:50;;;;;;;;;3.67;3.67;;;;;;;;5095999;27;45467;-72
2023/07/26 10:53:42;;;;;;;;;3.33;3.00;;;;;;;;5095153;27;45484;-72
2023/07/26 10:56:11;;;;;;;;;4.00;3.00;;;;;;;;5091838;27;45547;-71
2023/07/26 10:58:44;;;;;;;;;3.00;3.00;;;;;;;;5094815;27;45508;-71
2023/07/26 11:01:17;;;;;;;;;4.00;4.00;;;;;;;;5095745;27;45509;-72
2023/07/26 11:03:42;;;;;;;;;3.00;2.00;;;;;;;;5095681;27;46785;-72
2023/07/26 11:06:07;;;;;;;;;2.00;2.00;;;;;;;;5095881;27;46345;-72
2023/07/26 11:08:47;;;;;;;;;2.00;2.00;;;;;;;;5096015;27;45623;-73
2023/07/26 11:11:16;;;;;;;;;4.00;4.00;;;;;;;;5095880;27;45233;-72
2023/07/26 11:13:42;;;;;;;;;1.67;1.67;;;;;;;;5096089;27;46254;-71
2023/07/26 11:16:07;;;;;;;;;2.67;2.67;;;;;;;;5095761;27;45572;-71
2023/07/26 11:18:39;;;;;;;;;3.33;1.33;;;;;;;;5096243;27;45412;-71
2023/07/26 11:21:05;;;;;;;;;19.33;17.00;;;;;;;;5095735;27;45375;-72
2023/07/26 11:23:30;;;;;;;;;2.67;2.67;;;;;;;;5095864;27;47149;-71
2023/07/26 11:25:59;;;;;;;;;4.33;1.67;;;;;;;;5093951;27;45600;-71
2023/07/26 11:28:28;;;;;;;;;4.00;2.00;;;;;;;;5092747;27;45429;-70
2023/07/26 11:30:55;;;;;;;;;3.00;3.00;;;;;;;;5096036;27;45367;-71
2023/07/26 11:33:30;;;;;;;;;2.00;2.00;;;;;;;;5095584;27;45479;-71
2023/07/26 11:35:55;;;;;;;;;4.33;3.00;;;;;;;;5095486;27;46363;-71
2023/07/26 11:38:20;;;;;;;;;4.00;4.00;;;;;;;;5094767;27;45476;-69
2023/07/26 11:40:46;;;;;;;;;3.67;2.33;;;;;;;;5095666;27;45314;-72
2023/07/26 11:43:12;;;;;;;;;2.33;2.33;;;;;;;;5077265;27;46003;-71
2023/07/26 11:45:37;;;;;;;;;3.33;3.33;;;;;;;;5095884;27;45388;-71
2023/07/26 11:48:08;;;;;;;;;2.33;2.33;;;;;;;;5098027;27;45409;-67
2023/07/26 11:50:34;;;;;;;;;4.00;4.00;;;;;;;;5095932;27;45551;-67
2023/07/26 11:53:04;;;;;;;;;2.00;2.00;;;;;;;;5095570;27;46609;-66
2023/07/26 11:55:29;;;;;;;;;2.67;2.67;;;;;;;;5093545;27;45448;-66
2023/07/26 11:57:55;;;;;;;;;4.00;2.00;;;;;;;;5095704;27;46289;-67
2023/07/26 12:00:20;;;;;;;;;3.67;3.67;;;;;;;;5095461;27;45760;-67
2023/07/26 12:02:46;;;;;;;;;3.00;3.00;;;;;;;;5095998;27;45462;-66
2023/07/26 12:05:21;;;;;;;;;3.00;3.00;;;;;;;;5099509;27;45867;-66
2023/07/26 12:07:50;;;;;;;;;2.00;2.00;;;;;;;;5099346;27;45217;-66
2023/07/26 12:10:37;;;;;;;;;3.00;2.00;;;;;;;;5096726;27;45437;-68
2023/07/26 12:13:08;;;;;;;;;4.00;4.00;;;;;;;;5098607;27;45350;-69
2023/07/26 12:15:53;;;;;;;;;2.00;2.00;;;;;;;;5097924;27;45472;-70
2023/07/26 12:18:19;;;;;;;;;2.67;2.00;;;;;;;;5098718;27;45528;-67
2023/07/26 12:20:53;;;;;;;;;4.67;4.67;;;;;;;;5099060;27;45435;-68
2023/07/26 12:23:19;;;;;;;;;23.67;23.00;;;;;;;;5099219;27;46447;-68
2023/07/26 12:25:44;;;;;;;;;7.67;4.67;;;;;;;;5097470;27;45422;-67
2023/07/26 12:28:09;;;;;;;;;3.00;3.00;;;;;;;;5098605;27;45335;-67
2023/07/26 12:30:34;;;;;;;;;2.67;2.00;;;;;;;;5099230;27;45462;-66
2023/07/26 12:33:13;;;;;;;;;3.67;3.67;;;;;;;;5097959;27;46433;-66
2023/07/26 12:35:40;;;;;;;;;7.33;4.00;;;;;;;;5098191;27;45511;-71
2023/07/26 12:38:10;;;;;;;;;3.00;3.00;;;;;;;;5098807;27;45678;-69
2023/07/26 12:40:35;;;;;;;;;5.00;4.00;;;;;;;;5098126;27;45491;-65
2023/07/26 12:43:18;;;;;;;;;3.67;3.67;;;;;;;;5097165;27;45661;-65
2023/07/26 12:45:43;;;;;;;;;4.00;4.00;;;;;;;;5098215;27;45387;-65
2023/07/26 12:48:08;;;;;;;;;3.67;3.67;;;;;;;;5095988;27;45411;-66
2023/07/26 12:50:33;;;;;;;;;4.33;3.33;;;;;;;;5098377;27;45429;-66
2023/07/26 12:52:59;;;;;;;;;3.33;3.00;;;;;;;;5098553;27;46244;-67
2023/07/26 12:55:24;;;;;;;;;3.00;3.00;;;;;;;;5097429;27;45485;-67
2023/07/26 12:57:49;;;;;;;;;7.00;3.00;;;;;;;;5098149;27;45522;-71
2023/07/26 13:00:15;;;;;;;;;5.67;5.00;;;;;;;;5098486;27;45450;-71
2023/07/26 13:03:10;;;;;;;;;3.67;2.33;;;;;;;;5098064;27;45461;-74
2023/07/26 13:05:35;;;;;;;;;3.67;3.67;;;;;;;;5096094;27;45644;-71
2023/07/26 13:08:01;;;;;;;;;5.00;3.00;;;;;;;;5098135;27;45485;-72
2023/07/26 13:10:27;;;;;;;;;5.67;4.00;;;;;;;;5098564;27;45415;-72
2023/07/26 13:12:53;;;;;;;;;3.00;3.00;;;;;;;;5097954;27;46792;-71
2023/07/26 13:15:19;;;;;;;;;1.00;1.00;;;;;;;;5096987;27;45467;-71
2023/07/26 13:17:44;;;;;;;;;3.00;3.00;;;;;;;;5097824;27;45871;-71
2023/07/26 13:20:10;;;;;;;;;2.00;2.00;;;;;;;;5098205;27;45474;-72
2023/07/26 13:22:35;;;;;;;;;2.33;2.33;;;;;;;;5097597;27;46491;-72
2023/07/26 13:25:00;;;;;;;;;4.33;4.00;;;;;;;;5097508;27;45558;-72
2023/07/26 13:27:26;;;;;;;;;3.00;1.67;;;;;;;;5097577;27;45440;-72
2023/07/26 13:29:51;;;;;;;;;2.33;2.33;;;;;;;;5098328;27;45474;-72
2023/07/26 13:32:16;;;;;;;;;3.00;3.00;;;;;;;;5097611;27;46329;-72
2023/07/26 13:34:42;;;;;;;;;4.67;3.33;;;;;;;;5097730;27;45416;-71
2023/07/26 13:37:07;;;;;;;;;7.33;7.33;;;;;;;;5097502;27;45930;-72
2023/07/26 13:39:33;;;;;;;;;4.00;3.00;;;;;;;;5098248;27;45165;-71
2023/07/26 13:41:58;;;;;;;;;5.00;5.00;;;;;;;;5096559;27;46161;-77
2023/07/26 13:44:23;;;;;;;;;4.00;4.00;;;;;;;;5096942;27;45361;-68
2023/07/26 13:46:48;;;;;;;;;3.00;3.00;;;;;;;;5097529;27;45383;-68
2023/07/26 13:49:13;;;;;;;;;3.00;3.00;;;;;;;;5097220;27;45394;-66
2023/07/26 13:51:39;;;;;;;;;3.00;3.00;;;;;;;;5097187;27;46154;-72
2023/07/26 13:54:04;;;;;;;;;3.67;3.00;;;;;;;;5097352;27;45369;-72
2023/07/26 13:56:30;;;;;;;;;3.33;2.00;;;;;;;;5096451;27;45489;-73
2023/07/26 13:58:55;;;;;;;;;6.00;3.00;;;;;;;;5098083;27;45475;-72
2023/07/26 14:01:21;;;;;;;;;5.00;2.00;;;;;;;;5097077;27;46046;-72
2023/07/26 14:03:46;;;;;;;;;2.00;2.00;;;;;;;;5096648;27;45513;-72
2023/07/26 14:06:12;;;;;;;;;4.67;4.67;;;;;;;;5096567;27;45486;-68
2023/07/26 14:08:37;;;;;;;;;5.00;2.67;;;;;;;;5095796;27;46465;-65
2023/07/26 14:11:02;;;;;;;;;1.67;1.67;;;;;;;;5096341;27;46252;-68
2023/07/26 14:13:28;;;;;;;;;2.00;2.00;;;;;;;;5095964;27;45652;-65
2023/07/26 14:15:53;;;;;;;;;2.00;2.00;;;;;;;;5096028;27;45462;-65
2023/07/26 14:18:19;;;;;;;;;1.00;0.00;;;;;;;;5096680;27;46304;-67
2023/07/26 14:20:44;;;;;;;;;5.00;2.00;;;;;;;;5095549;27;46534;-69
2023/07/26 14:23:09;;;;;;;;;1.67;1.67;;;;;;;;5097395;27;46395;-73
2023/07/26 14:25:34;;;;;;;;;2.00;2.00;;;;;;;;5096297;27;45467;-72
2023/07/26 14:27:59;;;;;;;;;4.33;2.00;;;;;;;;5096375;27;45446;-72
2023/07/26 14:30:25;;;;;;;;;3.33;1.67;;;;;;;;5096445;27;46304;-72
2023/07/26 14:32:50;;;;;;;;;3.33;2.00;;;;;;;;5096535;27;45609;-73
2023/07/26 14:35:15;;;;;;;;;7.33;3.67;;;;;;;;5096913;27;45851;-71